Terminal Aerodrome Forecast
Issued by NWS

Home | Current Version | Previous Version | Text Only | Print | Product List | Glossary On
Versions: 1 2 3 4 5 6 7 8 9 10 11 12 13 14 15 16 17 18 19 20
000
FTUS46 KMTR 182029 AAA
TAFMRY
TAF AMD
KMRY 182029Z 1820/1918 28005KT 6SM BR SCT020
     FM182200 24006KT 6SM BR VCSH BKN018 OVC025
     FM190400 22005KT 6SM -SHRA BR SCT010 OVC020
     FM191000 22008KT 6SM -SHRA BR FEW010 SCT050 OVC200
     FM191400 14005KT 6SM BR VCSH SCT010 BKN030=

USA.gov is the U.S. government's official web portal to all federal, state and local government web resources and services.